createdAt,value
2019-05-02T00:01:14.920Z,15.10
2019-05-02T00:03:44.194Z,16.80
2019-05-02T00:06:13.446Z,16.83
2019-05-02T00:08:42.567Z,16.37
2019-05-02T00:11:12.937Z,15.70
2019-05-02T00:13:42.414Z,17.67
2019-05-02T00:16:14.116Z,17.40
2019-05-02T00:18:42.358Z,15.93
2019-05-02T00:21:50.243Z,16.80
2019-05-02T00:24:19.549Z,18.43
2019-05-02T00:26:48.597Z,16.27
2019-05-02T00:29:18.981Z,18.00
2019-05-02T00:31:48.837Z,17.43
2019-05-02T00:34:18.297Z,19.37
2019-05-02T00:36:47.342Z,18.70
2019-05-02T00:39:16.435Z,18.60
2019-05-02T00:41:45.390Z,20.10
2019-05-02T00:44:14.481Z,22.30
2019-05-02T00:46:43.697Z,19.53
2019-05-02T00:49:12.909Z,19.27
2019-05-02T00:51:42.101Z,23.07
2019-05-02T00:54:11.190Z,21.17
2019-05-02T00:56:43.951Z,22.77
2019-05-02T00:59:10.894Z,24.23
2019-05-02T01:02:05.463Z,23.60
2019-05-02T01:04:35.156Z,22.50
2019-05-02T01:07:05.074Z,23.47
2019-05-02T01:09:34.146Z,24.23
2019-05-02T01:12:08.244Z,25.53
2019-05-02T01:14:34.166Z,26.93
2019-05-02T01:17:03.254Z,21.90
2019-05-02T01:19:32.457Z,26.33
2019-05-02T01:22:01.650Z,24.37
2019-05-02T01:24:34.103Z,30.17
2019-05-02T01:27:25.853Z,25.37
2019-05-02T01:30:05.624Z,25.27
2019-05-02T01:32:49.674Z,27.13
2019-05-02T01:35:40.827Z,28.43
2019-05-02T01:38:26.273Z,27.70
2019-05-02T01:40:54.780Z,27.57
2019-05-02T01:43:26.315Z,24.23
2019-05-02T01:45:55.341Z,25.27
2019-05-02T01:48:25.587Z,23.60
2019-05-02T01:50:54.662Z,26.63
2019-05-02T01:53:24.151Z,24.23
2019-05-02T01:55:57.565Z,26.23
2019-05-02T01:58:24.485Z,29.70
2019-05-02T02:00:53.735Z,27.00
2019-05-02T02:03:22.830Z,29.27
2019-05-02T02:05:51.926Z,25.10
2019-05-02T02:08:21.041Z,29.67
2019-05-02T02:10:50.636Z,27.13
2019-05-02T02:13:20.936Z,27.47
2019-05-02T02:15:50.003Z,29.63
2019-05-02T02:18:22.380Z,30.17
2019-05-02T02:21:13.509Z,25.00
2019-05-02T02:23:49.661Z,29.53
2019-05-02T02:26:20.379Z,27.83
2019-05-02T02:28:49.450Z,30.07
2019-05-02T02:31:20.347Z,30.80
2019-05-02T02:33:50.075Z,35.27
2019-05-02T02:36:29.522Z,34.87
2019-05-02T02:38:51.976Z,34.80
2019-05-02T02:41:21.021Z,36.87
2019-05-02T02:44:21.257Z,34.03
2019-05-02T02:46:50.852Z,33.23
2019-05-02T02:49:24.014Z,35.37
2019-05-02T02:51:50.993Z,36.30
2019-05-02T02:54:20.075Z,34.33
2019-05-02T02:56:49.150Z,30.77
2019-05-02T02:59:19.332Z,33.30
2019-05-02T03:01:49.084Z,30.07
2019-05-02T03:04:18.191Z,32.47
2019-05-02T03:06:47.309Z,29.17
2019-05-02T03:09:20.397Z,28.00
2019-05-02T03:12:04.754Z,27.70
2019-05-02T03:14:41.054Z,28.50
2019-05-02T03:17:06.715Z,32.90
2019-05-02T03:19:35.849Z,27.83
2019-05-02T03:22:04.903Z,29.53
2019-05-02T03:24:36.755Z,27.57
2019-05-02T03:27:04.999Z,27.53
2019-05-02T03:29:40.908Z,24.67
2019-05-02T03:32:16.159Z,30.53
2019-05-02T03:34:47.114Z,26.73
2019-05-02T03:37:25.838Z,30.50
2019-05-02T03:39:57.989Z,28.77
2019-05-02T03:42:25.967Z,24.73
2019-05-02T03:45:01.483Z,31.00
2019-05-02T03:47:26.462Z,26.70
2019-05-02T03:49:55.552Z,32.17
2019-05-02T03:52:24.881Z,25.43
2019-05-02T03:54:53.945Z,25.77
2019-05-02T03:57:32.313Z,32.23
2019-05-02T03:59:54.568Z,26.90
2019-05-02T04:02:43.075Z,30.13
2019-05-02T04:05:12.793Z,26.87
2019-05-02T04:07:42.361Z,28.07
2019-05-02T04:10:18.968Z,28.17
2019-05-02T04:12:44.617Z,27.50
2019-05-02T04:15:13.876Z,29.00
2019-05-02T04:17:43.486Z,30.70
2019-05-02T04:20:13.000Z,30.70
2019-05-02T04:22:48.991Z,32.17
2019-05-02T04:25:13.453Z,30.50
2019-05-02T04:27:42.880Z,30.73
2019-05-02T04:30:14.314Z,35.37
2019-05-02T04:32:43.297Z,35.60
2019-05-02T04:35:13.573Z,32.93
2019-05-02T04:37:43.783Z,34.03
2019-05-02T04:40:13.402Z,35.80
2019-05-02T04:42:42.545Z,35.53
2019-05-02T04:45:21.870Z,36.57
2019-05-02T04:47:42.728Z,36.47
2019-05-02T04:50:18.072Z,43.93
2019-05-02T04:52:48.251Z,44.23
2019-05-02T04:55:24.842Z,43.40
2019-05-02T04:57:50.481Z,39.00
2019-05-02T05:00:18.523Z,39.40
2019-05-02T05:02:49.671Z,44.20
2019-05-02T05:05:25.698Z,41.80
2019-05-02T05:07:49.648Z,43.80
2019-05-02T05:10:18.993Z,40.33
2019-05-02T05:12:48.143Z,42.43
2019-05-02T05:15:34.676Z,45.93
2019-05-02T05:17:50.037Z,44.57
2019-05-02T05:20:18.741Z,40.33
2019-05-02T05:22:47.937Z,45.80
2019-05-02T05:25:22.517Z,42.63
2019-05-02T05:27:52.659Z,48.73
2019-05-02T05:30:22.670Z,44.40
2019-05-02T05:32:51.686Z,42.73
2019-05-02T05:35:20.712Z,43.97
2019-05-02T05:37:53.126Z,47.63
2019-05-02T05:40:22.578Z,47.13
2019-05-02T05:42:51.315Z,50.30
2019-05-02T05:45:20.413Z,50.27
2019-05-02T05:47:52.328Z,47.73
2019-05-02T05:50:20.574Z,45.10
2019-05-02T05:52:51.844Z,47.07
2019-05-02T05:55:24.060Z,49.30
2019-05-02T05:57:59.499Z,44.90
2019-05-02T06:00:23.265Z,52.73
2019-05-02T06:02:56.256Z,46.27
2019-05-02T06:05:23.372Z,47.50
2019-05-02T06:07:52.512Z,47.40
2019-05-02T06:10:21.599Z,50.43
2019-05-02T06:12:50.780Z,55.70
2019-05-02T06:15:19.866Z,60.40
2019-05-02T06:17:48.886Z,69.57
2019-05-02T06:20:17.975Z,69.03
2019-05-02T06:22:47.106Z,77.87
2019-05-02T06:25:16.957Z,72.80
2019-05-02T06:27:46.115Z,80.47
2019-05-02T06:30:16.620Z,64.13
2019-05-02T06:32:49.892Z,79.03
2019-05-02T06:35:17.195Z,74.80
2019-05-02T06:37:50.105Z,73.03
2019-05-02T06:40:19.204Z,68.43
2019-05-02T06:42:48.218Z,67.07
2019-05-02T06:45:18.849Z,60.90
2019-05-02T06:47:48.023Z,68.70
2019-05-02T06:50:18.410Z,70.70
2019-05-02T06:52:47.719Z,60.93
2019-05-02T06:55:16.775Z,60.13
2019-05-02T06:57:45.858Z,34.80
2019-05-02T07:00:16.101Z,53.63
2019-05-02T07:02:45.337Z,49.33
2019-05-02T07:05:14.554Z,46.80
2019-05-02T07:07:43.868Z,42.40
2019-05-02T07:10:14.096Z,39.60
2019-05-02T07:12:46.154Z,41.07
2019-05-02T07:15:33.612Z,45.67
2019-05-02T07:18:10.701Z,54.83
2019-05-02T07:20:40.483Z,38.93
2019-05-02T07:23:16.164Z,33.20
2019-05-02T07:25:43.954Z,55.80
2019-05-02T07:28:12.665Z,34.93
2019-05-02T07:30:41.806Z,30.07
2019-05-02T07:33:11.079Z,32.00
2019-05-02T07:35:40.216Z,53.57
2019-05-02T07:38:09.394Z,44.00
2019-05-02T07:40:38.539Z,46.17
2019-05-02T07:43:07.599Z,29.33
2019-05-02T07:45:40.325Z,32.40
2019-05-02T07:48:07.491Z,36.33
2019-05-02T07:50:36.560Z,36.17
2019-05-02T07:53:09.584Z,30.50
2019-05-02T07:55:40.678Z,37.53
2019-05-02T07:58:08.254Z,53.67
2019-05-02T08:00:38.486Z,31.33
2019-05-02T08:03:08.058Z,25.03
2019-05-02T08:05:37.170Z,31.87
2019-05-02T08:08:06.829Z,27.70
2019-05-02T08:10:36.082Z,37.50
2019-05-02T08:13:05.176Z,26.07
2019-05-02T08:15:34.246Z,49.10
2019-05-02T08:18:03.393Z,33.33
2019-05-02T08:20:31.855Z,26.37
2019-05-02T08:23:00.799Z,21.73
2019-05-02T08:25:29.948Z,27.73
2019-05-02T08:28:15.910Z,43.30
2019-05-02T08:30:44.946Z,49.10
2019-05-02T08:33:14.178Z,43.90
2019-05-02T08:35:48.875Z,42.57
2019-05-02T08:38:19.038Z,28.07
2019-05-02T08:40:49.734Z,47.27
2019-05-02T08:43:19.245Z,50.00
2019-05-02T08:45:48.257Z,51.97
2019-05-02T08:48:17.340Z,58.53
2019-05-02T08:50:46.669Z,56.40
2019-05-02T08:53:19.981Z,57.27
2019-05-02T08:55:46.778Z,39.17
2019-05-02T08:58:16.280Z,38.83
2019-05-02T09:00:47.443Z,47.07
2019-05-02T09:03:16.928Z,47.17
2019-05-02T09:05:47.368Z,48.73
2019-05-02T09:08:16.844Z,48.37
2019-05-02T09:10:46.481Z,45.17
2019-05-02T09:13:23.623Z,54.33
2019-05-02T09:15:51.346Z,48.83
2019-05-02T09:18:17.190Z,52.27
2019-05-02T09:20:46.946Z,50.23
2019-05-02T09:23:17.106Z,50.30
2019-05-02T09:25:46.113Z,55.90
2019-05-02T09:28:17.113Z,41.33
2019-05-02T09:30:46.886Z,29.60
2019-05-02T09:33:16.166Z,47.40
2019-05-02T09:35:45.247Z,44.93
2019-05-02T09:38:16.311Z,43.27
2019-05-02T09:40:47.298Z,36.33
2019-05-02T09:43:16.060Z,56.00
2019-05-02T09:45:45.172Z,40.30
2019-05-02T09:48:17.317Z,47.17
2019-05-02T09:50:45.050Z,45.47
2019-05-02T09:53:20.753Z,47.93
2019-05-02T09:55:50.391Z,42.73
2019-05-02T09:58:34.790Z,30.83
2019-05-02T10:01:11.757Z,44.77
2019-05-02T10:03:42.232Z,41.97
2019-05-02T10:06:13.951Z,40.23
2019-05-02T10:08:45.469Z,31.53
2019-05-02T10:11:17.118Z,29.10
2019-05-02T10:13:44.552Z,39.17
2019-05-02T10:16:18.087Z,38.53
2019-05-02T10:18:44.654Z,35.83
2019-05-02T10:21:17.162Z,38.80
2019-05-02T10:23:44.831Z,27.83
2019-05-02T10:26:19.825Z,37.17
2019-05-02T10:28:49.337Z,36.37
2019-05-02T10:31:16.559Z,33.92
2019-05-02T10:33:45.667Z,36.90
2019-05-02T10:36:19.631Z,32.78
2019-05-02T10:38:48.936Z,36.93
2019-05-02T10:41:16.701Z,32.23
2019-05-02T10:43:46.908Z,33.63
2019-05-02T10:46:44.784Z,23.00
2019-05-02T10:49:19.815Z,31.80
2019-05-02T10:51:51.875Z,36.23
2019-05-02T10:54:23.023Z,30.53
2019-05-02T10:56:52.112Z,33.60
2019-05-02T10:59:22.072Z,28.77
2019-05-02T11:02:12.775Z,23.63
2019-05-02T11:04:46.159Z,28.07
2019-05-02T11:07:17.200Z,25.53
2019-05-02T11:09:46.252Z,15.73
2019-05-02T11:12:23.946Z,24.37
2019-05-02T11:14:55.738Z,17.60
2019-05-02T11:17:32.180Z,27.80
2019-05-02T11:20:04.049Z,23.90
2019-05-02T11:22:33.248Z,24.17
2019-05-02T11:25:02.563Z,12.80
2019-05-02T11:27:32.886Z,23.93
2019-05-02T11:30:02.824Z,17.50
2019-05-02T11:32:32.815Z,18.33
2019-05-02T11:35:03.015Z,14.40
2019-05-02T11:37:32.936Z,16.07
2019-05-02T11:40:06.182Z,14.10
2019-05-02T11:42:33.276Z,20.33
2019-05-02T11:45:02.791Z,23.00
2019-05-02T11:47:32.840Z,11.37
2019-05-02T11:50:02.532Z,10.77
2019-05-02T11:52:36.198Z,17.10
2019-05-02T11:55:03.581Z,17.97
2019-05-02T11:57:33.173Z,21.65
2019-05-02T12:00:05.084Z,21.40
2019-05-02T12:02:58.161Z,23.83
2019-05-02T12:05:35.397Z,15.47
2019-05-02T12:08:07.925Z,11.50
2019-05-02T12:10:36.542Z,19.70
2019-05-02T12:13:06.656Z,12.73
2019-05-02T12:15:35.695Z,12.80
2019-05-02T12:18:05.294Z,11.03
2019-05-02T12:20:36.775Z,13.13
2019-05-02T12:23:05.435Z,17.40
2019-05-02T12:25:35.086Z,7.90
2019-05-02T12:28:04.639Z,21.77
2019-05-02T12:30:37.658Z,12.07
2019-05-02T12:33:05.295Z,13.53
2019-05-02T12:35:34.766Z,9.63
2019-05-02T12:38:04.093Z,12.30
2019-05-02T12:40:33.782Z,9.67
2019-05-02T12:43:03.052Z,9.67
2019-05-02T12:45:33.697Z,11.78
2019-05-02T12:48:03.190Z,14.17
2019-05-02T12:50:32.285Z,15.53
2019-05-02T12:53:02.922Z,8.10
2019-05-02T12:55:32.665Z,11.93
2019-05-02T12:58:03.207Z,19.33
2019-05-02T13:00:32.762Z,10.50
2019-05-02T13:03:27.199Z,12.87
2019-05-02T13:05:56.406Z,7.43
2019-05-02T13:08:25.530Z,11.43
2019-05-02T13:11:19.650Z,8.47
2019-05-02T13:13:49.243Z,12.77
2019-05-02T13:16:19.915Z,8.03
2019-05-02T13:18:49.219Z,8.87
2019-05-02T13:21:23.527Z,6.87
2019-05-02T13:23:59.895Z,7.50
2019-05-02T13:26:29.019Z,7.87
2019-05-02T13:28:58.138Z,7.37
2019-05-02T13:31:43.039Z,10.33
2019-05-02T13:34:36.475Z,15.83
2019-05-02T13:37:09.086Z,10.37
2019-05-02T13:39:43.355Z,7.37
2019-05-02T13:42:12.864Z,9.60
2019-05-02T13:44:52.717Z,8.63
2019-05-02T13:47:22.933Z,5.80
2019-05-02T13:49:56.804Z,7.50
2019-05-02T13:52:23.102Z,6.05
2019-05-02T13:54:52.707Z,6.53
2019-05-02T13:57:22.819Z,4.77
2019-05-02T13:59:52.500Z,6.30
2019-05-02T14:02:37.286Z,6.80
2019-05-02T14:05:08.733Z,8.23
2019-05-02T14:07:38.837Z,8.03
2019-05-02T14:10:15.214Z,4.70
2019-05-02T14:12:47.102Z,3.27
2019-05-02T14:15:18.502Z,4.33
2019-05-02T14:17:47.806Z,3.37
2019-05-02T14:20:22.057Z,4.50
2019-05-02T14:22:52.516Z,4.47
2019-05-02T14:25:22.297Z,4.07
2019-05-02T14:27:55.503Z,3.33
2019-05-02T14:30:35.966Z,2.90
2019-05-02T14:32:57.290Z,3.73
2019-05-02T14:35:29.136Z,6.03
2019-05-02T14:38:14.384Z,4.23
2019-05-02T14:41:03.280Z,3.30
2019-05-02T14:43:54.015Z,6.28
2019-05-02T14:46:34.405Z,5.87
2019-05-02T14:48:56.946Z,3.00
2019-05-02T14:51:27.998Z,2.93
2019-05-02T14:54:02.553Z,7.00
2019-05-02T14:56:37.681Z,2.10
2019-05-02T14:59:09.205Z,3.77
2019-05-02T15:01:37.508Z,2.80
2019-05-02T15:04:08.229Z,2.57
2019-05-02T15:06:38.271Z,2.25
2019-05-02T15:09:11.946Z,2.20
2019-05-02T15:11:58.460Z,7.85
2019-05-02T15:14:28.850Z,8.43
2019-05-02T15:16:58.708Z,5.57
2019-05-02T15:19:28.097Z,5.05
2019-05-02T15:21:57.521Z,6.60
2019-05-02T15:24:27.625Z,6.60
2019-05-02T15:26:57.555Z,6.07
2019-05-02T15:29:27.404Z,7.50
2019-05-02T15:32:37.242Z,3.90
2019-05-02T15:35:29.249Z,5.33
2019-05-02T15:38:02.487Z,2.60
2019-05-02T15:43:04.525Z,5.33
2019-05-02T15:45:31.736Z,3.10
2019-05-02T15:48:03.697Z,5.30
2019-05-02T15:50:36.233Z,3.57
2019-05-02T15:53:16.985Z,3.10
2019-05-02T15:55:50.088Z,3.10
2019-05-02T15:58:28.770Z,2.90
2019-05-02T16:01:18.155Z,2.40
2019-05-02T16:03:49.538Z,3.93
2019-05-02T16:06:24.338Z,3.57
2019-05-02T16:08:49.479Z,3.43
2019-05-02T16:11:19.230Z,3.93
2019-05-02T16:13:52.504Z,4.87
2019-05-02T16:16:22.138Z,2.93
2019-05-02T16:18:52.616Z,3.13
2019-05-02T16:21:30.583Z,2.10
2019-05-02T16:24:17.666Z,2.67
2019-05-02T16:26:47.074Z,4.10
2019-05-02T16:29:23.699Z,1.40
2019-05-02T16:31:55.002Z,2.77
2019-05-02T16:34:27.279Z,2.67
2019-05-02T16:37:13.523Z,3.83
2019-05-02T16:39:42.524Z,5.90
2019-05-02T16:42:12.260Z,1.53
2019-05-02T16:44:42.927Z,3.27
2019-05-02T16:47:13.904Z,3.97
2019-05-02T16:49:43.409Z,2.50
2019-05-02T16:52:13.151Z,3.63
2019-05-02T16:54:43.838Z,3.17
2019-05-02T16:57:17.449Z,1.23
2019-05-02T16:59:43.935Z,2.30
2019-05-02T17:02:13.204Z,1.87
2019-05-02T17:04:42.835Z,4.87
2019-05-02T17:07:17.041Z,3.57
2019-05-02T17:10:02.973Z,3.67
2019-05-02T17:12:32.746Z,4.97
2019-05-02T17:15:19.485Z,1.97
2019-05-02T17:17:48.915Z,2.27
2019-05-02T17:20:18.435Z,2.33
2019-05-02T17:22:50.304Z,2.57
2019-05-02T17:25:18.815Z,1.60
2019-05-02T17:27:48.216Z,2.42
2019-05-02T17:30:18.617Z,5.40
2019-05-02T17:32:48.176Z,4.90
2019-05-02T17:35:17.810Z,3.57
2019-05-02T17:37:48.581Z,5.00
2019-05-02T17:40:24.445Z,3.10
2019-05-02T17:42:49.812Z,5.97
2019-05-02T17:45:19.873Z,3.67
2019-05-02T17:47:49.199Z,5.07
2019-05-02T17:50:28.861Z,2.93
2019-05-02T17:53:01.050Z,3.97
2019-05-02T17:55:32.739Z,6.63
2019-05-02T17:58:04.620Z,3.47
2019-05-02T18:00:33.935Z,6.47
2019-05-02T18:03:15.515Z,6.33
2019-05-02T18:05:44.724Z,6.07
2019-05-02T18:08:14.869Z,4.77
2019-05-02T18:10:44.473Z,4.93
2019-05-02T18:13:13.814Z,5.37
2019-05-02T18:15:43.108Z,10.87
2019-05-02T18:18:12.795Z,3.73
2019-05-02T18:20:46.363Z,8.37
2019-05-02T18:23:12.994Z,8.67
2019-05-02T18:25:42.126Z,3.60
2019-05-02T18:28:15.902Z,8.03
2019-05-02T18:30:42.271Z,5.17
2019-05-02T18:33:12.009Z,4.27
2019-05-02T18:35:45.299Z,10.43
2019-05-02T18:38:15.855Z,8.13
2019-05-02T18:40:43.852Z,4.83
2019-05-02T18:43:13.166Z,11.90
2019-05-02T18:45:42.616Z,7.57
2019-05-02T18:48:12.725Z,4.83
2019-05-02T18:50:46.918Z,8.20
2019-05-02T18:53:18.633Z,8.37
2019-05-02T18:55:45.643Z,8.23
2019-05-02T18:58:14.769Z,5.50
2019-05-02T19:00:43.947Z,5.17
2019-05-02T19:03:17.146Z,5.90
2019-05-02T19:05:46.643Z,4.40
2019-05-02T19:08:27.569Z,8.10
2019-05-02T19:11:11.733Z,5.63
2019-05-02T19:13:37.578Z,9.03
2019-05-02T19:16:07.575Z,3.43
2019-05-02T19:18:36.694Z,6.43
2019-05-02T19:21:07.030Z,6.50
2019-05-02T19:23:37.203Z,8.03
2019-05-02T19:26:15.014Z,5.67
2019-05-02T19:28:57.909Z,8.97
2019-05-02T19:31:36.673Z,8.60
2019-05-02T19:34:05.807Z,8.83
2019-05-02T19:36:34.877Z,5.57
2019-05-02T19:39:09.533Z,6.77
2019-05-02T19:41:39.035Z,11.27
2019-05-02T19:44:06.913Z,7.37
2019-05-02T19:46:38.907Z,9.37
2019-05-02T19:49:12.400Z,5.37
2019-05-02T19:51:38.297Z,7.57
2019-05-02T19:54:07.477Z,10.33
2019-05-02T19:56:43.954Z,7.57
2019-05-02T19:59:07.630Z,6.63
2019-05-02T20:01:37.312Z,6.23
2019-05-02T20:04:09.378Z,7.17
2019-05-02T20:06:37.766Z,10.77
2019-05-02T20:09:08.529Z,7.40
2019-05-02T20:11:37.975Z,9.83
2019-05-02T20:14:09.682Z,5.67
2019-05-02T20:16:45.917Z,7.60
2019-05-02T20:19:17.192Z,5.53
2019-05-02T20:22:07.818Z,7.80
2019-05-02T20:24:59.905Z,4.03
2019-05-02T20:27:28.230Z,9.87
2019-05-02T20:29:56.583Z,7.23
2019-05-02T20:32:25.833Z,5.07
2019-05-02T20:34:54.975Z,7.83
2019-05-02T20:37:24.453Z,7.63
2019-05-02T20:39:53.630Z,8.53
2019-05-02T20:42:22.827Z,8.93
2019-05-02T20:44:52.787Z,4.80
2019-05-02T20:47:25.178Z,6.13
2019-05-02T20:49:54.411Z,8.53
2019-05-02T20:52:23.980Z,9.87
2019-05-02T20:54:53.468Z,5.67
2019-05-02T20:57:22.633Z,6.83
2019-05-02T20:59:55.349Z,8.90
2019-05-02T21:02:26.651Z,5.67
2019-05-02T21:04:56.359Z,9.87
2019-05-02T21:07:39.804Z,6.10
2019-05-02T21:10:32.313Z,8.93
2019-05-02T21:13:02.580Z,10.87
2019-05-02T21:15:32.409Z,3.57
2019-05-02T21:18:02.343Z,8.47
2019-05-02T21:20:35.280Z,7.80
2019-05-02T21:23:04.761Z,9.53
2019-05-02T21:25:34.057Z,6.73
2019-05-02T21:28:03.292Z,6.40
2019-05-02T21:30:32.624Z,7.27
2019-05-02T21:33:02.781Z,6.53
2019-05-02T21:35:32.348Z,5.87
2019-05-02T21:38:01.846Z,8.13
2019-05-02T21:40:32.690Z,9.87
2019-05-02T21:43:02.452Z,7.53
2019-05-02T21:45:31.798Z,5.00
2019-05-02T21:48:02.311Z,6.03
2019-05-02T21:50:40.235Z,6.23
2019-05-02T21:53:22.508Z,6.30
2019-05-02T21:55:58.259Z,5.50
2019-05-02T21:58:27.427Z,4.90
2019-05-02T22:01:03.079Z,6.20
2019-05-02T22:03:32.516Z,5.80
2019-05-02T22:06:01.835Z,4.73
2019-05-02T22:08:32.306Z,7.87
2019-05-02T22:11:01.608Z,6.57
2019-05-02T22:13:31.571Z,5.53
2019-05-02T22:16:02.302Z,7.13
2019-05-02T22:18:32.110Z,6.53
2019-05-02T22:21:01.808Z,8.23
2019-05-02T22:23:31.880Z,8.73
2019-05-02T22:26:02.226Z,5.27
2019-05-02T22:28:34.469Z,6.80
2019-05-02T22:31:03.545Z,7.13
2019-05-02T22:33:32.945Z,9.00
2019-05-02T22:36:02.105Z,5.10
2019-05-02T22:38:54.496Z,4.60
2019-05-02T22:41:23.709Z,8.17
2019-05-02T22:43:52.812Z,4.50
2019-05-02T22:46:39.573Z,9.03
2019-05-02T22:49:08.723Z,5.60
2019-05-02T22:51:37.811Z,7.60
2019-05-02T22:54:07.279Z,7.77
2019-05-02T22:56:36.539Z,8.43
2019-05-02T22:59:06.009Z,4.93
2019-05-02T23:01:35.784Z,4.27
2019-05-02T23:04:05.368Z,8.40
2019-05-02T23:06:35.312Z,7.70
2019-05-02T23:09:07.100Z,5.40
2019-05-02T23:11:36.549Z,7.03
2019-05-02T23:14:06.536Z,5.83
2019-05-02T23:16:35.632Z,5.20
2019-05-02T23:19:05.192Z,8.90
2019-05-02T23:21:34.336Z,6.80
2019-05-02T23:24:07.446Z,9.40
2019-05-02T23:27:01.681Z,7.47
2019-05-02T23:29:31.831Z,9.83
2019-05-02T23:32:02.392Z,8.50
2019-05-02T23:34:32.380Z,7.63
2019-05-02T23:37:02.635Z,5.77
2019-05-02T23:39:32.266Z,8.10
2019-05-02T23:42:01.956Z,6.57
2019-05-02T23:44:31.613Z,6.87
2019-05-02T23:47:02.328Z,6.33
2019-05-02T23:49:33.270Z,8.73
2019-05-02T23:52:02.443Z,10.40
2019-05-02T23:54:32.444Z,7.93
2019-05-02T23:57:02.002Z,6.13
2019-05-02T23:59:31.811Z,5.07
